sensor_id;sensor_type;location;lat;lon;timestamp;pressure;altitude;pressure_sealevel;temperature;humidity
73941;BME280;62294;48.554;10.202;2022-07-30T00:01:45;96147.63;;;15.26;90.45
73941;BME280;62294;48.554;10.202;2022-07-30T00:04:12;96145.34;;;15.18;90.79
73941;BME280;62294;48.554;10.202;2022-07-30T00:06:38;96143.75;;;15.17;90.61
73941;BME280;62294;48.554;10.202;2022-07-30T00:09:05;96145.34;;;15.18;90.62
73941;BME280;62294;48.554;10.202;2022-07-30T00:11:32;96145.34;;;15.18;90.69
73941;BME280;62294;48.554;10.202;2022-07-30T00:13:58;96144.22;;;15.14;90.60
73941;BME280;62294;48.554;10.202;2022-07-30T00:16:25;96132.69;;;15.14;90.67
73941;BME280;62294;48.554;10.202;2022-07-30T00:18:52;96136.44;;;15.13;90.70
73941;BME280;62294;48.554;10.202;2022-07-30T00:21:18;96139.69;;;15.15;90.40
73941;BME280;62294;48.554;10.202;2022-07-30T00:24:05;96136.59;;;15.06;90.83
73941;BME280;62294;48.554;10.202;2022-07-30T00:26:32;96137.09;;;15.03;90.42
73941;BME280;62294;48.554;10.202;2022-07-30T00:28:58;96138.69;;;15.04;90.47
73941;BME280;62294;48.554;10.202;2022-07-30T00:31:25;96140.56;;;15.04;90.75
73941;BME280;62294;48.554;10.202;2022-07-30T00:33:51;96137.56;;;15.00;90.66
73941;BME280;62294;48.554;10.202;2022-07-30T00:36:18;96132.78;;;15.02;90.43
73941;BME280;62294;48.554;10.202;2022-07-30T00:38:45;96138.56;;;14.94;90.18
73941;BME280;62294;48.554;10.202;2022-07-30T00:41:11;96142.84;;;14.95;90.57
73941;BME280;62294;48.554;10.202;2022-07-30T00:43:41;96151.84;;;14.89;90.73
73941;BME280;62294;48.554;10.202;2022-07-30T00:46:08;96147.16;;;14.96;90.30
73941;BME280;62294;48.554;10.202;2022-07-30T00:48:34;96152.69;;;14.89;90.37
73941;BME280;62294;48.554;10.202;2022-07-30T00:51:02;96137.19;;;14.91;90.34
73941;BME280;62294;48.554;10.202;2022-07-30T00:53:29;96143.75;;;15.01;90.12
73941;BME280;62294;48.554;10.202;2022-07-30T00:55:55;96140.97;;;14.96;90.36
73941;BME280;62294;48.554;10.202;2022-07-30T00:58:23;96147.81;;;15.03;90.02
73941;BME280;62294;48.554;10.202;2022-07-30T01:00:50;96147.16;;;14.96;89.92
73941;BME280;62294;48.554;10.202;2022-07-30T01:03:16;96151.69;;;14.96;89.81
73941;BME280;62294;48.554;10.202;2022-07-30T01:05:43;96150.06;;;14.78;90.37
73941;BME280;62294;48.554;10.202;2022-07-30T01:08:10;96141.97;;;14.73;90.47
73941;BME280;62294;48.554;10.202;2022-07-30T01:10:37;96151.69;;;14.79;89.96
73941;BME280;62294;48.554;10.202;2022-07-30T01:13:04;96144.44;;;14.63;90.30
73941;BME280;62294;48.554;10.202;2022-07-30T01:15:31;96148.09;;;14.57;90.52
73941;BME280;62294;48.554;10.202;2022-07-30T01:18:00;96146.81;;;14.59;90.25
73941;BME280;62294;48.554;10.202;2022-07-30T01:20:32;96147.94;;;14.63;90.30
73941;BME280;62294;48.554;10.202;2022-07-30T01:23:06;96143.41;;;14.64;90.31
73941;BME280;62294;48.554;10.202;2022-07-30T01:25:47;96152.31;;;14.53;90.24
73941;BME280;62294;48.554;10.202;2022-07-30T01:28:18;96147.63;;;14.60;90.35
73941;BME280;62294;48.554;10.202;2022-07-30T01:30:47;96146.97;;;14.53;90.49
73941;BME280;62294;48.554;10.202;2022-07-30T01:33:17;96141.22;;;14.61;90.38
73941;BME280;62294;48.554;10.202;2022-07-30T01:35:46;96148.44;;;14.77;90.24
73941;BME280;62294;48.554;10.202;2022-07-30T01:38:16;96142.13;;;14.83;89.84
73941;BME280;62294;48.554;10.202;2022-07-30T01:40:47;96150.53;;;14.75;89.70
73941;BME280;62294;48.554;10.202;2022-07-30T01:43:16;96148.34;;;14.72;89.45
73941;BME280;62294;48.554;10.202;2022-07-30T01:45:45;96148.44;;;14.77;89.50
73941;BME280;62294;48.554;10.202;2022-07-30T01:48:13;96147.31;;;14.73;89.23
73941;BME280;62294;48.554;10.202;2022-07-30T01:50:43;96148.75;;;14.64;89.91
73941;BME280;62294;48.554;10.202;2022-07-30T01:53:16;96151.84;;;14.72;89.54
73941;BME280;62294;48.554;10.202;2022-07-30T01:55:45;96149.81;;;14.79;89.01
73941;BME280;62294;48.554;10.202;2022-07-30T01:58:13;96149.41;;;14.71;89.02
73941;BME280;62294;48.554;10.202;2022-07-30T02:00:42;96142.13;;;14.66;89.32
73941;BME280;62294;48.554;10.202;2022-07-30T02:03:11;96148.09;;;14.57;89.43
73941;BME280;62294;48.554;10.202;2022-07-30T02:05:40;96149.53;;;14.48;89.44
73941;BME280;62294;48.554;10.202;2022-07-30T02:08:23;96148.81;;;14.52;89.60
73941;BME280;62294;48.554;10.202;2022-07-30T02:10:58;96155.72;;;14.48;89.56
73941;BME280;62294;48.554;10.202;2022-07-30T02:13:29;96152.69;;;14.45;89.47
73941;BME280;62294;48.554;10.202;2022-07-30T02:16:05;96145.16;;;14.42;89.68
73941;BME280;62294;48.554;10.202;2022-07-30T02:18:56;96143.44;;;14.36;89.40
73941;BME280;62294;48.554;10.202;2022-07-30T02:21:36;96149.50;;;14.31;89.89
73941;BME280;62294;48.554;10.202;2022-07-30T02:24:05;96145.00;;;14.20;89.58
73941;BME280;62294;48.554;10.202;2022-07-30T02:26:34;96149.16;;;14.28;89.19
73941;BME280;62294;48.554;10.202;2022-07-30T02:29:05;96148.69;;;14.31;89.15
73941;BME280;62294;48.554;10.202;2022-07-30T02:31:37;96152.44;;;14.30;88.88
73941;BME280;62294;48.554;10.202;2022-07-30T02:34:05;96145.41;;;14.29;88.61
73941;BME280;62294;48.554;10.202;2022-07-30T02:36:34;96145.34;;;14.23;88.65
73941;BME280;62294;48.554;10.202;2022-07-30T02:39:03;96151.66;;;14.06;89.54
73941;BME280;62294;48.554;10.202;2022-07-30T02:41:31;96146.13;;;13.96;89.56
73941;BME280;62294;48.554;10.202;2022-07-30T02:43:59;96155.13;;;13.78;90.07
73941;BME280;62294;48.554;10.202;2022-07-30T02:46:27;96153.41;;;13.72;89.83
73941;BME280;62294;48.554;10.202;2022-07-30T02:48:56;96151.53;;;13.73;89.96
73941;BME280;62294;48.554;10.202;2022-07-30T02:51:24;96152.75;;;13.93;89.63
73941;BME280;62294;48.554;10.202;2022-07-30T02:53:54;96160.19;;;14.03;89.18
73941;BME280;62294;48.554;10.202;2022-07-30T02:56:22;96152.63;;;14.00;89.07
73941;BME280;62294;48.554;10.202;2022-07-30T02:58:50;96165.00;;;14.17;88.83
73941;BME280;62294;48.554;10.202;2022-07-30T03:01:20;96165.34;;;14.21;88.69
73941;BME280;62294;48.554;10.202;2022-07-30T03:03:49;96154.16;;;14.24;88.42
73941;BME280;62294;48.554;10.202;2022-07-30T03:06:17;96158.50;;;14.13;88.38
73941;BME280;62294;48.554;10.202;2022-07-30T03:08:45;96151.34;;;14.02;88.52
73941;BME280;62294;48.554;10.202;2022-07-30T03:11:13;96151.91;;;14.04;88.69
73941;BME280;62294;48.554;10.202;2022-07-30T03:13:42;96154.72;;;13.98;88.48
73941;BME280;62294;48.554;10.202;2022-07-30T03:16:09;96149.53;;;13.91;88.41
73941;BME280;62294;48.554;10.202;2022-07-30T03:18:37;96152.56;;;13.83;88.83
73941;BME280;62294;48.554;10.202;2022-07-30T03:21:07;96157.69;;;13.85;88.67
73941;BME280;62294;48.554;10.202;2022-07-30T03:23:36;96156.75;;;13.79;88.73
73941;BME280;62294;48.554;10.202;2022-07-30T03:26:05;96158.84;;;13.77;88.87
73941;BME280;62294;48.554;10.202;2022-07-30T03:28:37;96159.88;;;13.76;88.92
73941;BME280;62294;48.554;10.202;2022-07-30T03:31:05;96163.47;;;13.82;89.10
73941;BME280;62294;48.554;10.202;2022-07-30T03:33:34;96170.44;;;13.83;88.91
73941;BME280;62294;48.554;10.202;2022-07-30T03:36:05;96162.31;;;13.89;88.75
73941;BME280;62294;48.554;10.202;2022-07-30T03:38:32;96168.69;;;13.88;88.65
73941;BME280;62294;48.554;10.202;2022-07-30T03:41:02;96165.56;;;13.91;88.60
73941;BME280;62294;48.554;10.202;2022-07-30T03:43:29;96177.84;;;13.92;88.52
73941;BME280;62294;48.554;10.202;2022-07-30T03:45:58;96168.97;;;14.03;88.61
73941;BME280;62294;48.554;10.202;2022-07-30T03:48:27;96171.09;;;14.01;87.92
73941;BME280;62294;48.554;10.202;2022-07-30T03:50:54;96173.34;;;13.81;88.07
73941;BME280;62294;48.554;10.202;2022-07-30T03:53:20;96185.69;;;13.71;89.23
73941;BME280;62294;48.554;10.202;2022-07-30T03:55:51;96179.16;;;13.78;88.74
73941;BME280;62294;48.554;10.202;2022-07-30T03:58:18;96183.63;;;13.61;88.98
73941;BME280;62294;48.554;10.202;2022-07-30T04:00:49;96187.09;;;13.62;89.07
73941;BME280;62294;48.554;10.202;2022-07-30T04:03:24;96203.13;;;13.50;89.42
73941;BME280;62294;48.554;10.202;2022-07-30T04:05:50;96210.78;;;13.46;89.81
73941;BME280;62294;48.554;10.202;2022-07-30T04:08:18;96203.13;;;13.50;89.66
73941;BME280;62294;48.554;10.202;2022-07-30T04:10:47;96201.16;;;13.57;89.37
73941;BME280;62294;48.554;10.202;2022-07-30T04:13:14;96206.38;;;13.52;89.67
73941;BME280;62294;48.554;10.202;2022-07-30T04:15:55;96209.22;;;13.85;89.54
73941;BME280;62294;48.554;10.202;2022-07-30T04:18:47;96209.44;;;14.07;88.53
73941;BME280;62294;48.554;10.202;2022-07-30T04:21:17;96211.69;;;14.27;87.70
73941;BME280;62294;48.554;10.202;2022-07-30T04:23:46;96212.25;;;14.40;87.99
73941;BME280;62294;48.554;10.202;2022-07-30T04:26:31;96217.44;;;14.47;87.54
73941;BME280;62294;48.554;10.202;2022-07-30T04:28:59;96223.09;;;14.62;87.97
73941;BME280;62294;48.554;10.202;2022-07-30T04:31:27;96225.03;;;14.66;87.30
73941;BME280;62294;48.554;10.202;2022-07-30T04:33:54;96230.25;;;14.73;86.93
73941;BME280;62294;48.554;10.202;2022-07-30T04:36:29;96221.91;;;14.86;87.36
73941;BME280;62294;48.554;10.202;2022-07-30T04:38:56;96234.56;;;14.74;85.11
73941;BME280;62294;48.554;10.202;2022-07-30T04:41:23;96243.09;;;14.59;86.62
73941;BME280;62294;48.554;10.202;2022-07-30T04:43:50;96237.75;;;14.59;87.00
73941;BME280;62294;48.554;10.202;2022-07-30T04:46:17;96241.97;;;14.72;86.07
73941;BME280;62294;48.554;10.202;2022-07-30T04:48:44;96248.00;;;14.79;86.13
73941;BME280;62294;48.554;10.202;2022-07-30T04:51:26;96246.56;;;14.88;85.97
73941;BME280;62294;48.554;10.202;2022-07-30T04:53:54;96250.97;;;14.94;86.22
73941;BME280;62294;48.554;10.202;2022-07-30T04:56:23;96257.13;;;15.11;85.93
73941;BME280;62294;48.554;10.202;2022-07-30T04:58:51;96257.00;;;15.34;84.66
73941;BME280;62294;48.554;10.202;2022-07-30T05:01:22;96259.09;;;15.32;83.58
73941;BME280;62294;48.554;10.202;2022-07-30T05:04:07;96263.63;;;15.32;84.19
73941;BME280;62294;48.554;10.202;2022-07-30T05:06:34;96250.50;;;15.63;83.89
73941;BME280;62294;48.554;10.202;2022-07-30T05:09:02;96254.47;;;15.78;84.77
73941;BME280;62294;48.554;10.202;2022-07-30T05:11:29;96260.31;;;15.75;82.07
73941;BME280;62294;48.554;10.202;2022-07-30T05:13:55;96258.28;;;15.82;83.11
73941;BME280;62294;48.554;10.202;2022-07-30T05:16:22;96261.94;;;15.76;84.39
73941;BME280;62294;48.554;10.202;2022-07-30T05:18:49;96260.72;;;15.83;83.61
73941;BME280;62294;48.554;10.202;2022-07-30T05:21:16;96266.09;;;16.05;83.02
73941;BME280;62294;48.554;10.202;2022-07-30T05:23:42;96260.66;;;16.00;81.78
73941;BME280;62294;48.554;10.202;2022-07-30T05:26:19;96257.94;;;15.95;82.47
73941;BME280;62294;48.554;10.202;2022-07-30T05:28:46;96264.34;;;15.94;82.71
73941;BME280;62294;48.554;10.202;2022-07-30T05:31:20;96265.09;;;15.73;82.54
73941;BME280;62294;48.554;10.202;2022-07-30T05:33:47;96275.00;;;15.89;83.18
73941;BME280;62294;48.554;10.202;2022-07-30T05:36:14;96268.66;;;15.95;81.61
73941;BME280;62294;48.554;10.202;2022-07-30T05:38:40;96269.91;;;16.09;81.79
73941;BME280;62294;48.554;10.202;2022-07-30T05:41:07;96274.19;;;15.88;80.85
73941;BME280;62294;48.554;10.202;2022-07-30T05:43:53;96272.66;;;16.14;81.54
73941;BME280;62294;48.554;10.202;2022-07-30T05:46:22;96268.94;;;16.15;80.21
73941;BME280;62294;48.554;10.202;2022-07-30T05:48:48;96270.69;;;16.26;79.29
73941;BME280;62294;48.554;10.202;2022-07-30T05:51:15;96276.66;;;17.30;78.25
73941;BME280;62294;48.554;10.202;2022-07-30T05:53:44;96272.25;;;18.81;74.80
73941;BME280;62294;48.554;10.202;2022-07-30T05:56:10;96276.38;;;19.24;71.81
73941;BME280;62294;48.554;10.202;2022-07-30T05:58:37;96277.19;;;19.29;66.26
73941;BME280;62294;48.554;10.202;2022-07-30T06:01:04;96278.69;;;20.56;67.02
73941;BME280;62294;48.554;10.202;2022-07-30T06:03:31;96277.94;;;20.99;62.31
73941;BME280;62294;48.554;10.202;2022-07-30T06:05:57;96278.66;;;21.59;62.07
73941;BME280;62294;48.554;10.202;2022-07-30T06:08:24;96275.44;;;21.90;63.00
73941;BME280;62294;48.554;10.202;2022-07-30T06:10:50;96283.66;;;22.09;59.02
73941;BME280;62294;48.554;10.202;2022-07-30T06:13:17;96286.22;;;23.14;57.06
73941;BME280;62294;48.554;10.202;2022-07-30T06:15:43;96286.56;;;21.89;57.27
73941;BME280;62294;48.554;10.202;2022-07-30T06:18:10;96284.72;;;22.66;57.45
73941;BME280;62294;48.554;10.202;2022-07-30T06:20:36;96286.25;;;24.02;52.08
73941;BME280;62294;48.554;10.202;2022-07-30T06:23:03;96299.81;;;23.70;52.37
73941;BME280;62294;48.554;10.202;2022-07-30T06:25:30;96295.66;;;22.79;53.64
73941;BME280;62294;48.554;10.202;2022-07-30T06:27:56;96292.88;;;24.96;50.50
73941;BME280;62294;48.554;10.202;2022-07-30T06:30:23;96295.06;;;24.40;49.58
73941;BME280;62294;48.554;10.202;2022-07-30T06:32:56;96296.41;;;25.82;47.58
73941;BME280;62294;48.554;10.202;2022-07-30T06:35:23;96305.56;;;25.86;46.13
73941;BME280;62294;48.554;10.202;2022-07-30T06:37:49;96300.03;;;26.44;43.92
73941;BME280;62294;48.554;10.202;2022-07-30T06:40:32;96295.22;;;25.52;44.81
73941;BME280;62294;48.554;10.202;2022-07-30T06:42:59;96297.75;;;26.37;44.45
73941;BME280;62294;48.554;10.202;2022-07-30T06:45:26;96299.53;;;25.04;45.69
73941;BME280;62294;48.554;10.202;2022-07-30T06:47:56;96295.00;;;24.99;45.32
73941;BME280;62294;48.554;10.202;2022-07-30T06:50:25;96296.25;;;26.31;43.05
73941;BME280;62294;48.554;10.202;2022-07-30T06:52:51;96295.41;;;24.52;48.73
73941;BME280;62294;48.554;10.202;2022-07-30T06:55:18;96291.41;;;23.34;49.98
73941;BME280;62294;48.554;10.202;2022-07-30T06:57:44;96297.09;;;24.48;49.41
73941;BME280;62294;48.554;10.202;2022-07-30T07:00:11;96302.16;;;26.55;42.91
73941;BME280;62294;48.554;10.202;2022-07-30T07:02:38;96301.97;;;27.39;41.20
73941;BME280;62294;48.554;10.202;2022-07-30T07:05:05;96312.44;;;26.58;42.32
73941;BME280;62294;48.554;10.202;2022-07-30T07:07:33;96310.19;;;27.99;39.88
73941;BME280;62294;48.554;10.202;2022-07-30T07:10:09;96305.13;;;27.24;40.77
73941;BME280;62294;48.554;10.202;2022-07-30T07:12:36;96313.88;;;26.03;44.64
73941;BME280;62294;48.554;10.202;2022-07-30T07:15:03;96309.38;;;27.90;40.42
73941;BME280;62294;48.554;10.202;2022-07-30T07:17:30;96302.53;;;26.32;40.63
73941;BME280;62294;48.554;10.202;2022-07-30T07:19:57;96310.53;;;27.63;39.24
73941;BME280;62294;48.554;10.202;2022-07-30T07:22:27;96308.88;;;28.13;38.37
73941;BME280;62294;48.554;10.202;2022-07-30T07:24:53;96318.53;;;24.49;46.01
73941;BME280;62294;48.554;10.202;2022-07-30T07:27:20;96317.03;;;23.42;49.09
73941;BME280;62294;48.554;10.202;2022-07-30T07:29:46;96309.78;;;25.20;47.21
73941;BME280;62294;48.554;10.202;2022-07-30T07:32:32;96318.44;;;27.08;42.42
73941;BME280;62294;48.554;10.202;2022-07-30T07:34:59;96320.13;;;27.52;40.71
73941;BME280;62294;48.554;10.202;2022-07-30T07:37:26;96322.97;;;28.96;37.56
73941;BME280;62294;48.554;10.202;2022-07-30T07:39:52;96329.75;;;27.41;41.00
73941;BME280;62294;48.554;10.202;2022-07-30T07:42:19;96323.34;;;27.54;39.83
73941;BME280;62294;48.554;10.202;2022-07-30T07:44:45;96323.34;;;26.58;42.12
73941;BME280;62294;48.554;10.202;2022-07-30T07:47:13;96325.63;;;27.04;39.52
73941;BME280;62294;48.554;10.202;2022-07-30T07:49:40;96319.41;;;26.42;41.10
73941;BME280;62294;48.554;10.202;2022-07-30T07:52:06;96307.72;;;27.29;39.73
73941;BME280;62294;48.554;10.202;2022-07-30T07:54:33;96303.53;;;27.23;38.99
73941;BME280;62294;48.554;10.202;2022-07-30T07:56:59;96317.34;;;27.35;39.66
73941;BME280;62294;48.554;10.202;2022-07-30T07:59:29;96312.25;;;29.12;36.27
73941;BME280;62294;48.554;10.202;2022-07-30T08:02:05;96305.84;;;27.38;38.49
73941;BME280;62294;48.554;10.202;2022-07-30T08:04:33;96317.88;;;28.31;36.36
73941;BME280;62294;48.554;10.202;2022-07-30T08:07:00;96315.66;;;26.60;39.26
73941;BME280;62294;48.554;10.202;2022-07-30T08:09:27;96318.72;;;28.06;37.47
73941;BME280;62294;48.554;10.202;2022-07-30T08:12:13;96326.44;;;28.04;36.22
73941;BME280;62294;48.554;10.202;2022-07-30T08:14:39;96321.28;;;28.02;37.43
73941;BME280;62294;48.554;10.202;2022-07-30T08:17:06;96336.69;;;26.68;38.18
73941;BME280;62294;48.554;10.202;2022-07-30T08:19:34;96321.78;;;26.97;38.13
73941;BME280;62294;48.554;10.202;2022-07-30T08:22:00;96317.38;;;27.52;37.47
73941;BME280;62294;48.554;10.202;2022-07-30T08:24:27;96325.53;;;28.63;35.59
73941;BME280;62294;48.554;10.202;2022-07-30T08:26:53;96320.59;;;27.54;35.93
73941;BME280;62294;48.554;10.202;2022-07-30T08:29:20;96332.72;;;27.14;36.72
73941;BME280;62294;48.554;10.202;2022-07-30T08:31:46;96334.91;;;26.33;37.07
73941;BME280;62294;48.554;10.202;2022-07-30T08:34:13;96322.00;;;27.26;35.70
73941;BME280;62294;48.554;10.202;2022-07-30T08:36:40;96332.50;;;27.58;34.89
73941;BME280;62294;48.554;10.202;2022-07-30T08:39:07;96343.00;;;27.99;35.03
73941;BME280;62294;48.554;10.202;2022-07-30T08:41:37;96332.91;;;27.17;34.92
73941;BME280;62294;48.554;10.202;2022-07-30T08:44:09;96333.66;;;28.08;34.85
73941;BME280;62294;48.554;10.202;2022-07-30T08:46:42;96337.50;;;27.65;33.84
73941;BME280;62294;48.554;10.202;2022-07-30T08:49:13;96333.59;;;26.53;34.99
73941;BME280;62294;48.554;10.202;2022-07-30T08:51:40;96330.75;;;28.05;33.30
73941;BME280;62294;48.554;10.202;2022-07-30T08:54:07;96336.63;;;28.50;31.47
73941;BME280;62294;48.554;10.202;2022-07-30T08:56:34;96339.16;;;29.10;32.42
73941;BME280;62294;48.554;10.202;2022-07-30T08:59:01;96350.56;;;28.74;31.25
73941;BME280;62294;48.554;10.202;2022-07-30T09:01:27;96330.69;;;28.39;31.29
73941;BME280;62294;48.554;10.202;2022-07-30T09:03:54;96336.84;;;28.36;31.28
73941;BME280;62294;48.554;10.202;2022-07-30T09:06:21;96337.81;;;28.23;31.93
73941;BME280;62294;48.554;10.202;2022-07-30T09:08:47;96339.22;;;27.43;33.08
73941;BME280;62294;48.554;10.202;2022-07-30T09:11:14;96341.09;;;29.18;30.47
73941;BME280;62294;48.554;10.202;2022-07-30T09:13:41;96342.91;;;28.42;30.99
73941;BME280;62294;48.554;10.202;2022-07-30T09:16:25;96342.31;;;27.85;30.37
73941;BME280;62294;48.554;10.202;2022-07-30T09:18:53;96335.72;;;26.64;32.17
73941;BME280;62294;48.554;10.202;2022-07-30T09:21:22;96354.00;;;28.37;30.72
73941;BME280;62294;48.554;10.202;2022-07-30T09:24:08;96348.84;;;28.61;29.63
73941;BME280;62294;48.554;10.202;2022-07-30T09:26:58;96357.34;;;29.43;29.09
73941;BME280;62294;48.554;10.202;2022-07-30T09:29:28;96356.38;;;28.64;29.55
73941;BME280;62294;48.554;10.202;2022-07-30T09:31:59;96358.06;;;28.05;30.29
73941;BME280;62294;48.554;10.202;2022-07-30T09:34:32;96345.50;;;27.53;31.29
73941;BME280;62294;48.554;10.202;2022-07-30T09:37:16;96353.25;;;27.76;31.75
73941;BME280;62294;48.554;10.202;2022-07-30T09:39:43;96335.75;;;27.86;30.89
73941;BME280;62294;48.554;10.202;2022-07-30T09:42:26;96351.63;;;27.58;32.90
73941;BME280;62294;48.554;10.202;2022-07-30T09:47:37;96351.50;;;29.74;29.36
73941;BME280;62294;48.554;10.202;2022-07-30T09:50:08;96347.06;;;26.27;33.50
73941;BME280;62294;48.554;10.202;2022-07-30T09:52:38;96346.53;;;29.76;29.32
73941;BME280;62294;48.554;10.202;2022-07-30T09:55:10;96343.38;;;29.86;28.22
73941;BME280;62294;48.554;10.202;2022-07-30T09:58:03;96350.09;;;29.47;29.72
73941;BME280;62294;48.554;10.202;2022-07-30T10:00:36;96347.25;;;29.35;28.97
73941;BME280;62294;48.554;10.202;2022-07-30T10:03:33;96346.97;;;28.91;30.42
73941;BME280;62294;48.554;10.202;2022-07-30T10:06:08;96341.69;;;29.53;28.54
73941;BME280;62294;48.554;10.202;2022-07-30T10:08:42;96351.34;;;30.00;28.07
73941;BME280;62294;48.554;10.202;2022-07-30T10:11:20;96343.63;;;30.35;27.46
73941;BME280;62294;48.554;10.202;2022-07-30T10:13:56;96353.41;;;29.53;27.66
73941;BME280;62294;48.554;10.202;2022-07-30T10:16:26;96350.38;;;29.55;28.68
73941;BME280;62294;48.554;10.202;2022-07-30T10:18:56;96344.25;;;28.82;28.41
73941;BME280;62294;48.554;10.202;2022-07-30T10:21:24;96353.69;;;29.60;28.03
73941;BME280;62294;48.554;10.202;2022-07-30T10:23:52;96336.53;;;27.86;28.95
73941;BME280;62294;48.554;10.202;2022-07-30T10:26:19;96340.22;;;28.88;28.24
73941;BME280;62294;48.554;10.202;2022-07-30T10:28:46;96343.78;;;29.97;27.66
73941;BME280;62294;48.554;10.202;2022-07-30T10:31:13;96349.25;;;29.97;27.26
73941;BME280;62294;48.554;10.202;2022-07-30T10:34:01;96345.38;;;30.31;26.63
73941;BME280;62294;48.554;10.202;2022-07-30T10:36:28;96336.41;;;30.09;25.01
73941;BME280;62294;48.554;10.202;2022-07-30T10:38:55;96340.41;;;30.12;26.62
73941;BME280;62294;48.554;10.202;2022-07-30T10:41:58;96337.75;;;29.33;27.15
73941;BME280;62294;48.554;10.202;2022-07-30T10:47:07;96339.03;;;28.51;28.84
73941;BME280;62294;48.554;10.202;2022-07-30T10:49:36;96332.31;;;30.15;26.63
73941;BME280;62294;48.554;10.202;2022-07-30T10:52:07;96341.28;;;30.04;27.44
73941;BME280;62294;48.554;10.202;2022-07-30T10:54:43;96336.06;;;30.11;25.54
73941;BME280;62294;48.554;10.202;2022-07-30T10:57:15;96332.22;;;29.91;26.24
73941;BME280;62294;48.554;10.202;2022-07-30T11:02:30;96347.13;;;27.79;29.83
73941;BME280;62294;48.554;10.202;2022-07-30T11:05:33;96337.81;;;27.07;31.66
73941;BME280;62294;48.554;10.202;2022-07-30T11:08:33;96339.91;;;27.49;31.00
73941;BME280;62294;48.554;10.202;2022-07-30T11:11:03;96343.75;;;28.17;29.71
73941;BME280;62294;48.554;10.202;2022-07-30T11:14:01;96340.69;;;27.02;31.27
73941;BME280;62294;48.554;10.202;2022-07-30T11:19:15;96351.00;;;26.43;32.80
73941;BME280;62294;48.554;10.202;2022-07-30T11:24:47;96331.25;;;27.81;30.31
73941;BME280;62294;48.554;10.202;2022-07-30T11:27:43;96339.56;;;29.29;28.88
73941;BME280;62294;48.554;10.202;2022-07-30T11:32:47;96330.22;;;29.80;27.43
73941;BME280;62294;48.554;10.202;2022-07-30T11:35:21;96336.13;;;29.03;28.74
73941;BME280;62294;48.554;10.202;2022-07-30T11:38:12;96331.50;;;29.53;28.27
73941;BME280;62294;48.554;10.202;2022-07-30T11:43:26;96327.38;;;30.09;26.64
73941;BME280;62294;48.554;10.202;2022-07-30T11:46:17;96322.72;;;29.10;28.48
73941;BME280;62294;48.554;10.202;2022-07-30T11:48:57;96332.44;;;30.19;26.32
73941;BME280;62294;48.554;10.202;2022-07-30T11:51:24;96329.81;;;30.55;26.06
73941;BME280;62294;48.554;10.202;2022-07-30T11:54:02;96335.09;;;29.95;26.57
73941;BME280;62294;48.554;10.202;2022-07-30T11:56:29;96329.47;;;31.14;24.91
73941;BME280;62294;48.554;10.202;2022-07-30T11:59:09;96337.50;;;30.29;25.43
73941;BME280;62294;48.554;10.202;2022-07-30T12:01:35;96315.66;;;28.71;27.55
73941;BME280;62294;48.554;10.202;2022-07-30T12:04:07;96327.78;;;29.99;27.85
73941;BME280;62294;48.554;10.202;2022-07-30T12:06:43;96324.44;;;29.73;25.66
73941;BME280;62294;48.554;10.202;2022-07-30T12:09:10;96316.19;;;27.10;29.70
73941;BME280;62294;48.554;10.202;2022-07-30T12:11:37;96321.81;;;29.56;27.88
73941;BME280;62294;48.554;10.202;2022-07-30T12:14:03;96327.00;;;29.78;26.87
73941;BME280;62294;48.554;10.202;2022-07-30T12:16:32;96317.91;;;30.06;26.16
73941;BME280;62294;48.554;10.202;2022-07-30T12:19:01;96319.88;;;30.96;25.38
73941;BME280;62294;48.554;10.202;2022-07-30T12:21:28;96309.75;;;30.31;25.28
73941;BME280;62294;48.554;10.202;2022-07-30T12:24:00;96311.50;;;31.92;24.36
73941;BME280;62294;48.554;10.202;2022-07-30T12:26:29;96319.06;;;30.38;25.71
73941;BME280;62294;48.554;10.202;2022-07-30T12:28:57;96324.88;;;29.04;28.12
73941;BME280;62294;48.554;10.202;2022-07-30T12:31:26;96320.78;;;29.89;27.02
73941;BME280;62294;48.554;10.202;2022-07-30T12:33:53;96319.81;;;30.59;26.09
73941;BME280;62294;48.554;10.202;2022-07-30T12:36:25;96315.44;;;30.58;25.90
73941;BME280;62294;48.554;10.202;2022-07-30T12:38:52;96322.59;;;32.08;24.08
73941;BME280;62294;48.554;10.202;2022-07-30T12:41:20;96308.31;;;30.33;24.70
73941;BME280;62294;48.554;10.202;2022-07-30T12:43:52;96301.53;;;31.60;24.02
73941;BME280;62294;48.554;10.202;2022-07-30T12:46:21;96304.53;;;31.19;23.91
73941;BME280;62294;48.554;10.202;2022-07-30T12:49:00;96304.22;;;30.39;24.39
73941;BME280;62294;48.554;10.202;2022-07-30T12:51:52;96302.09;;;29.41;27.10
73941;BME280;62294;48.554;10.202;2022-07-30T12:54:26;96291.31;;;29.66;26.73
73941;BME280;62294;48.554;10.202;2022-07-30T12:56:58;96290.63;;;29.27;28.26
73941;BME280;62294;48.554;10.202;2022-07-30T12:59:26;96288.75;;;29.61;26.86
73941;BME280;62294;48.554;10.202;2022-07-30T13:01:53;96295.19;;;28.31;28.84
73941;BME280;62294;48.554;10.202;2022-07-30T13:04:22;96293.53;;;28.47;27.80
73941;BME280;62294;48.554;10.202;2022-07-30T13:07:09;96286.44;;;28.46;28.42
73941;BME280;62294;48.554;10.202;2022-07-30T13:09:37;96280.50;;;28.90;27.51
73941;BME280;62294;48.554;10.202;2022-07-30T13:12:05;96284.00;;;28.06;29.26
73941;BME280;62294;48.554;10.202;2022-07-30T13:14:32;96275.03;;;28.90;26.87
73941;BME280;62294;48.554;10.202;2022-07-30T13:16:58;96278.22;;;31.06;25.02
73941;BME280;62294;48.554;10.202;2022-07-30T13:19:26;96271.91;;;30.57;24.81
73941;BME280;62294;48.554;10.202;2022-07-30T13:21:53;96274.25;;;30.34;26.69
73941;BME280;62294;48.554;10.202;2022-07-30T13:24:20;96274.44;;;29.96;26.47
73941;BME280;62294;48.554;10.202;2022-07-30T13:26:47;96278.19;;;29.30;26.68